createdAt,value
2018-01-11T00:01:46.297Z,8.80
2018-01-11T00:04:13.848Z,8.80
2018-01-11T00:06:41.350Z,8.80
2018-01-11T00:09:09.639Z,8.90
2018-01-11T00:11:37.186Z,8.80
2018-01-11T00:14:04.716Z,8.90
2018-01-11T00:16:32.192Z,8.90
2018-01-11T00:19:00.527Z,9.00
2018-01-11T00:21:28.089Z,8.90
2018-01-11T00:23:55.545Z,8.90
2018-01-11T00:26:23.133Z,8.80
2018-01-11T00:28:50.690Z,8.90
2018-01-11T00:31:18.201Z,8.90
2018-01-11T00:33:45.731Z,8.80
2018-01-11T00:36:13.233Z,8.70
2018-01-11T00:38:40.813Z,8.70
2018-01-11T00:41:08.257Z,8.70
2018-01-11T00:43:35.896Z,8.70
2018-01-11T00:46:03.492Z,8.70
2018-01-11T00:48:30.965Z,8.80
2018-01-11T00:50:58.534Z,8.60
2018-01-11T00:53:26.871Z,8.60
2018-01-11T00:55:54.435Z,8.60
2018-01-11T00:58:21.928Z,8.60
2018-01-11T01:00:49.544Z,8.60
2018-01-11T01:03:17.079Z,8.50
2018-01-11T01:05:44.623Z,8.50
2018-01-11T01:08:13.033Z,8.50
2018-01-11T01:10:40.593Z,8.50
2018-01-11T01:13:08.184Z,8.50
2018-01-11T01:15:35.675Z,8.60
2018-01-11T01:18:03.211Z,8.60
2018-01-11T01:20:30.739Z,8.50
2018-01-11T01:22:58.190Z,8.50
2018-01-11T01:25:25.750Z,8.50
2018-01-11T01:27:53.269Z,8.40
2018-01-11T01:30:20.786Z,8.40
2018-01-11T01:32:48.290Z,8.40
2018-01-11T01:35:16.621Z,8.40
2018-01-11T01:37:44.129Z,8.40
2018-01-11T01:40:11.651Z,8.30
2018-01-11T01:42:39.175Z,8.30
2018-01-11T01:45:06.677Z,8.20
2018-01-11T01:47:34.228Z,8.20
2018-01-11T01:50:01.769Z,8.20
2018-01-11T01:52:29.290Z,8.30
2018-01-11T01:54:56.809Z,8.20
2018-01-11T01:57:24.396Z,8.20
2018-01-11T01:59:51.991Z,8.20
2018-01-11T02:02:19.571Z,8.20
2018-01-11T02:04:47.166Z,8.20
2018-01-11T02:07:14.696Z,8.20
2018-01-11T02:09:42.253Z,8.30
2018-01-11T02:12:10.375Z,8.30
2018-01-11T02:14:37.879Z,8.30
2018-01-11T02:17:05.423Z,8.30
2018-01-11T02:19:32.971Z,8.20
2018-01-11T02:22:00.509Z,8.20
2018-01-11T02:24:29.537Z,8.20
2018-01-11T02:26:57.085Z,8.20
2018-01-11T02:29:24.603Z,8.30
2018-01-11T02:31:52.125Z,8.30
2018-01-11T02:34:19.696Z,8.30
2018-01-11T02:36:47.252Z,8.30
2018-01-11T02:39:14.810Z,8.30
2018-01-11T02:41:42.369Z,8.30
2018-01-11T02:44:09.910Z,8.30
2018-01-11T02:46:37.699Z,8.30
2018-01-11T02:49:05.561Z,8.40
2018-01-11T02:51:33.059Z,8.50
2018-01-11T02:54:01.363Z,8.50
2018-01-11T02:56:28.803Z,8.50
2018-01-11T02:58:57.120Z,8.60
2018-01-11T03:01:24.704Z,8.60
2018-01-11T03:03:52.270Z,8.60
2018-01-11T03:06:19.784Z,8.50
2018-01-11T03:08:47.309Z,8.60
2018-01-11T03:11:15.605Z,8.50
2018-01-11T03:13:43.116Z,8.50
2018-01-11T03:16:10.640Z,8.50
2018-01-11T03:18:38.187Z,8.40
2018-01-11T03:21:05.771Z,8.30
2018-01-11T03:23:33.236Z,8.30
2018-01-11T03:26:00.685Z,8.30
2018-01-11T03:28:28.363Z,8.30
2018-01-11T03:30:56.003Z,8.30
2018-01-11T03:33:23.567Z,8.30
2018-01-11T03:35:51.081Z,8.20
2018-01-11T03:38:18.592Z,8.20
2018-01-11T03:40:46.132Z,8.20
2018-01-11T03:43:13.690Z,8.20
2018-01-11T03:45:41.369Z,8.10
2018-01-11T03:48:09.031Z,8.10
2018-01-11T03:50:36.604Z,8.10
2018-01-11T03:53:04.145Z,8.20
2018-01-11T03:55:31.949Z,8.20
2018-01-11T03:58:00.989Z,8.20
2018-01-11T04:00:28.519Z,8.30
2018-01-11T04:02:56.092Z,8.20
2018-01-11T04:05:24.416Z,8.10
2018-01-11T04:07:51.973Z,8.10
2018-01-11T04:10:19.625Z,8.10
2018-01-11T04:12:47.180Z,8.10
2018-01-11T04:15:14.718Z,8.10
2018-01-11T04:17:42.260Z,8.20
2018-01-11T04:20:10.578Z,8.10
2018-01-11T04:22:38.118Z,8.10
2018-01-11T04:25:05.684Z,8.10
2018-01-11T04:27:33.232Z,8.20
2018-01-11T04:30:00.748Z,8.20
2018-01-11T04:32:28.289Z,8.20
2018-01-11T04:34:55.836Z,8.20
2018-01-11T04:37:23.378Z,8.20
2018-01-11T04:39:51.029Z,8.20
2018-01-11T04:42:19.297Z,8.10
2018-01-11T04:44:47.605Z,8.10
2018-01-11T04:47:15.222Z,8.00
2018-01-11T04:49:43.454Z,8.10
2018-01-11T04:52:10.962Z,8.00
2018-01-11T04:54:39.291Z,8.20
2018-01-11T04:57:06.847Z,8.20
2018-01-11T04:59:34.359Z,8.20
2018-01-11T05:02:02.688Z,8.20
2018-01-11T05:04:30.182Z,8.20
2018-01-11T05:06:57.766Z,8.20
2018-01-11T05:09:26.081Z,8.20
2018-01-11T05:11:53.659Z,8.20
2018-01-11T05:14:21.152Z,8.20
2018-01-11T05:16:48.587Z,8.30
2018-01-11T05:19:16.122Z,8.40
2018-01-11T05:21:43.664Z,8.40
2018-01-11T05:24:11.168Z,8.40
2018-01-11T05:26:38.714Z,8.40
2018-01-11T05:29:06.277Z,8.30
2018-01-11T05:31:33.842Z,8.40
2018-01-11T05:34:01.377Z,8.40
2018-01-11T05:36:28.854Z,8.50
2018-01-11T05:38:56.454Z,8.50
2018-01-11T05:41:23.981Z,8.60
2018-01-11T05:43:51.524Z,8.50
2018-01-11T05:46:19.032Z,8.50
2018-01-11T05:48:47.383Z,8.60
2018-01-11T05:51:14.941Z,8.60
2018-01-11T05:53:42.531Z,8.70
2018-01-11T05:56:10.885Z,8.60
2018-01-11T05:58:38.467Z,8.60
2018-01-11T06:01:06.762Z,8.60
2018-01-11T06:03:34.216Z,8.60
2018-01-11T06:06:01.787Z,8.60
2018-01-11T06:08:29.302Z,8.70
2018-01-11T06:10:56.894Z,8.70
2018-01-11T06:13:24.465Z,8.60
2018-01-11T06:15:52.062Z,8.60
2018-01-11T06:18:19.626Z,8.60
2018-01-11T06:20:47.291Z,8.70
2018-01-11T06:23:14.953Z,8.70
2018-01-11T06:25:42.466Z,8.70
2018-01-11T06:28:09.956Z,8.70
2018-01-11T06:30:37.597Z,8.60
2018-01-11T06:33:05.107Z,8.60
2018-01-11T06:35:32.699Z,8.60
2018-01-11T06:38:00.285Z,8.60
2018-01-11T06:40:27.843Z,8.60
2018-01-11T06:42:55.382Z,8.60
2018-01-11T06:45:22.966Z,8.50
2018-01-11T06:47:50.475Z,8.50
2018-01-11T06:50:18.817Z,8.30
2018-01-11T06:52:46.487Z,8.20
2018-01-11T06:55:14.055Z,8.30
2018-01-11T06:57:41.614Z,8.30
2018-01-11T07:00:09.369Z,8.30
2018-01-11T07:02:36.864Z,8.20
2018-01-11T07:05:05.218Z,8.10
2018-01-11T07:07:32.782Z,8.10
2018-01-11T07:10:00.457Z,8.10
2018-01-11T07:12:28.001Z,8.20
2018-01-11T07:14:55.523Z,8.30
2018-01-11T07:17:23.037Z,8.40
2018-01-11T07:19:51.564Z,8.60
2018-01-11T07:22:19.119Z,8.50
2018-01-11T07:24:46.679Z,8.50
2018-01-11T07:27:14.256Z,8.50
2018-01-11T07:29:41.780Z,8.40
2018-01-11T07:32:09.276Z,8.50
2018-01-11T07:34:36.833Z,8.40
2018-01-11T07:37:04.307Z,8.40
2018-01-11T07:39:31.841Z,8.40
2018-01-11T07:41:59.366Z,8.40
2018-01-11T07:44:26.886Z,8.30
2018-01-11T07:46:54.442Z,8.40
2018-01-11T07:49:23.597Z,8.30
2018-01-11T07:51:51.187Z,8.30
2018-01-11T07:54:18.927Z,8.40
2018-01-11T07:56:46.489Z,8.40
2018-01-11T07:59:14.217Z,8.40
2018-01-11T08:01:41.862Z,8.50
2018-01-11T08:04:09.439Z,8.60
2018-01-11T08:06:38.050Z,8.60
2018-01-11T08:09:05.608Z,8.60
2018-01-11T08:11:33.199Z,8.70
2018-01-11T08:14:00.759Z,8.70
2018-01-11T08:16:28.311Z,8.60
2018-01-11T08:18:55.835Z,8.70
2018-01-11T08:21:23.401Z,8.70
2018-01-11T08:23:50.850Z,8.70
2018-01-11T08:26:18.363Z,8.80
2018-01-11T08:28:45.948Z,8.80
2018-01-11T08:31:13.558Z,8.80
2018-01-11T08:33:41.043Z,8.90
2018-01-11T08:36:08.592Z,9.00
2018-01-11T08:38:36.152Z,9.00
2018-01-11T08:41:03.660Z,8.90
2018-01-11T08:43:31.196Z,8.90
2018-01-11T08:45:59.531Z,9.00
2018-01-11T08:48:27.082Z,9.00
2018-01-11T08:50:54.570Z,9.10
2018-01-11T08:53:22.011Z,9.10
2018-01-11T08:55:49.515Z,9.10
2018-01-11T08:58:17.937Z,9.10
2018-01-11T09:00:45.598Z,9.10
2018-01-11T09:03:13.215Z,9.10
2018-01-11T09:05:40.731Z,9.10
2018-01-11T09:08:08.221Z,9.10
2018-01-11T09:10:35.705Z,9.10
2018-01-11T09:13:04.090Z,9.00
2018-01-11T09:15:31.634Z,9.00
2018-01-11T09:17:59.997Z,8.90
2018-01-11T09:20:27.558Z,8.90
2018-01-11T09:22:55.877Z,8.90
2018-01-11T09:25:23.459Z,8.90
2018-01-11T09:27:50.923Z,8.90
2018-01-11T09:30:21.614Z,8.90
2018-01-11T09:32:50.326Z,8.90
2018-01-11T09:35:17.933Z,9.00
2018-01-11T09:37:45.501Z,9.00
2018-01-11T09:40:13.853Z,9.10
2018-01-11T09:42:41.444Z,9.10
2018-01-11T09:45:09.054Z,9.20
2018-01-11T09:47:36.602Z,9.30
2018-01-11T09:50:04.208Z,9.20
2018-01-11T09:52:31.689Z,9.20
2018-01-11T09:54:59.277Z,9.30
2018-01-11T09:57:26.810Z,9.30
2018-01-11T09:59:54.394Z,9.50
2018-01-11T10:02:21.959Z,9.50
2018-01-11T10:04:49.568Z,9.70
2018-01-11T10:07:18.020Z,10.10
2018-01-11T10:09:45.514Z,10.10
2018-01-11T10:12:13.041Z,10.00
2018-01-11T10:14:40.613Z,9.90
2018-01-11T10:17:08.119Z,10.10
2018-01-11T10:19:36.445Z,10.10
2018-01-11T10:22:04.099Z,10.10
2018-01-11T10:24:31.632Z,10.10
2018-01-11T10:26:59.173Z,10.20
2018-01-11T10:29:27.569Z,10.30
2018-01-11T10:31:55.023Z,10.30
2018-01-11T10:34:22.558Z,10.50
2018-01-11T10:36:50.886Z,10.50
2018-01-11T10:39:18.432Z,10.50
2018-01-11T10:41:46.100Z,10.70
2018-01-11T10:44:13.636Z,10.60
2018-01-11T10:46:41.197Z,11.00
2018-01-11T10:49:08.721Z,11.10
2018-01-11T10:51:36.230Z,11.40
2018-01-11T10:54:03.716Z,11.50
2018-01-11T10:56:31.212Z,11.40
2018-01-11T10:58:58.783Z,11.30
2018-01-11T11:01:32.016Z,11.00
2018-01-11T11:03:59.574Z,11.10
2018-01-11T11:06:27.146Z,11.50
2018-01-11T11:08:54.704Z,11.70
2018-01-11T11:11:22.339Z,11.90
2018-01-11T11:13:50.060Z,11.90
2018-01-11T11:16:18.360Z,12.00
2018-01-11T11:18:45.942Z,12.00
2018-01-11T11:21:14.210Z,11.70
2018-01-11T11:23:41.703Z,11.40
2018-01-11T11:26:09.172Z,11.40
2018-01-11T11:28:36.702Z,12.00
2018-01-11T11:31:04.212Z,12.40
2018-01-11T11:33:31.972Z,12.90
2018-01-11T11:35:59.509Z,13.40
2018-01-11T11:38:27.237Z,13.70
2018-01-11T11:40:54.772Z,14.10
2018-01-11T11:43:23.171Z,13.90
2018-01-11T11:45:50.732Z,13.90
2018-01-11T11:48:18.298Z,13.80
2018-01-11T11:50:45.814Z,13.80
2018-01-11T11:53:14.105Z,14.50
2018-01-11T11:55:42.378Z,14.70
2018-01-11T11:58:10.662Z,15.10
2018-01-11T12:00:38.217Z,15.10
2018-01-11T12:03:05.763Z,15.30
2018-01-11T12:05:34.128Z,16.60
2018-01-11T12:08:01.698Z,16.50
2018-01-11T12:10:30.001Z,17.50
2018-01-11T12:12:57.658Z,17.50
2018-01-11T12:15:25.236Z,17.60
2018-01-11T12:17:52.768Z,17.40
2018-01-11T12:20:21.079Z,16.70
2018-01-11T12:22:48.672Z,16.70
2018-01-11T12:25:16.222Z,16.60
2018-01-11T12:27:43.717Z,17.20
2018-01-11T12:30:11.222Z,18.20
2018-01-11T12:32:38.729Z,18.70
2018-01-11T12:35:06.254Z,19.60
2018-01-11T12:37:33.855Z,20.10
2018-01-11T12:40:01.384Z,19.80
2018-01-11T12:42:28.912Z,20.40
2018-01-11T12:44:56.499Z,21.10
2018-01-11T12:47:23.998Z,21.60
2018-01-11T12:49:51.493Z,22.00
2018-01-11T12:52:19.161Z,21.90
2018-01-11T12:54:46.674Z,20.80
2018-01-11T12:57:14.942Z,19.40
2018-01-11T12:59:43.277Z,19.70
2018-01-11T13:02:10.827Z,19.70
2018-01-11T13:04:38.387Z,20.10
2018-01-11T13:07:05.939Z,19.70
2018-01-11T13:09:33.476Z,19.60
2018-01-11T13:12:01.026Z,19.60
2018-01-11T13:14:28.573Z,19.60
2018-01-11T13:16:56.175Z,20.10
2018-01-11T13:19:23.704Z,19.80
2018-01-11T13:21:52.027Z,20.20
2018-01-11T13:24:19.587Z,20.10
2018-01-11T13:26:47.962Z,21.30
2018-01-11T13:29:15.461Z,21.30
2018-01-11T13:31:43.764Z,20.20
2018-01-11T13:34:12.096Z,20.50
2018-01-11T13:36:39.658Z,20.40
2018-01-11T13:39:07.259Z,20.40
2018-01-11T13:41:35.671Z,20.90
2018-01-11T13:44:03.114Z,20.90
2018-01-11T13:46:30.648Z,20.30
2018-01-11T13:48:58.982Z,17.10
2018-01-11T13:51:26.656Z,17.00
2018-01-11T13:53:54.268Z,15.80
2018-01-11T13:56:21.834Z,15.10
2018-01-11T13:58:49.343Z,14.40
2018-01-11T14:01:16.909Z,13.80
2018-01-11T14:03:44.423Z,13.40
2018-01-11T14:06:11.943Z,13.20
2018-01-11T14:08:40.566Z,12.60
2018-01-11T14:11:11.222Z,12.60
2018-01-11T14:13:38.733Z,12.50
2018-01-11T14:16:06.310Z,12.40
2018-01-11T14:18:33.863Z,12.50
2018-01-11T14:21:01.435Z,12.40
2018-01-11T14:23:29.063Z,12.50
2018-01-11T14:25:57.363Z,13.10
2018-01-11T14:28:24.948Z,13.10
2018-01-11T14:30:52.512Z,13.60
2018-01-11T14:33:20.025Z,14.20
2018-01-11T14:35:47.529Z,15.30
2018-01-11T14:38:15.036Z,16.10
2018-01-11T14:40:43.307Z,16.90
2018-01-11T14:43:10.847Z,16.90
2018-01-11T14:45:38.366Z,17.70
2018-01-11T14:48:06.006Z,17.50
2018-01-11T14:50:33.550Z,16.60
2018-01-11T14:53:01.865Z,14.70
2018-01-11T14:55:29.378Z,14.70
2018-01-11T14:57:56.938Z,14.00
2018-01-11T15:00:25.205Z,13.20
2018-01-11T15:02:52.802Z,13.20
2018-01-11T15:05:20.313Z,13.00
2018-01-11T15:07:48.150Z,12.80
2018-01-11T15:10:15.675Z,12.70
2018-01-11T15:12:44.122Z,12.00
2018-01-11T15:15:11.673Z,11.90
2018-01-11T15:17:39.160Z,11.80
2018-01-11T15:20:06.680Z,11.80
2018-01-11T15:22:34.327Z,11.80
2018-01-11T15:25:01.887Z,11.80
2018-01-11T15:27:29.430Z,11.80
2018-01-11T15:29:57.305Z,11.70
2018-01-11T15:32:24.879Z,11.40
2018-01-11T15:34:52.448Z,11.50
2018-01-11T15:37:20.026Z,11.50
2018-01-11T15:39:49.101Z,11.20
2018-01-11T15:42:16.855Z,11.20
2018-01-11T15:44:44.717Z,11.30
2018-01-11T15:47:12.166Z,11.20
2018-01-11T15:49:39.716Z,11.20
2018-01-11T15:52:07.236Z,11.20
2018-01-11T15:54:36.362Z,11.00
2018-01-11T15:57:03.924Z,11.00
2018-01-11T15:59:31.534Z,10.90
2018-01-11T16:01:58.984Z,10.80
2018-01-11T16:04:26.512Z,10.80
2018-01-11T16:06:54.040Z,10.90
2018-01-11T16:09:21.602Z,10.80
2018-01-11T16:11:49.906Z,10.70
2018-01-11T16:14:17.496Z,10.70
2018-01-11T16:16:44.933Z,10.70
2018-01-11T16:19:12.449Z,10.60
2018-01-11T16:21:40.733Z,10.60
2018-01-11T16:24:09.069Z,10.60
2018-01-11T16:26:36.659Z,10.60
2018-01-11T16:29:04.976Z,10.40
2018-01-11T16:31:32.557Z,10.40
2018-01-11T16:34:00.061Z,10.30
2018-01-11T16:36:28.316Z,10.30
2018-01-11T16:38:55.864Z,10.30
2018-01-11T16:41:23.443Z,10.20
2018-01-11T16:43:51.755Z,10.20
2018-01-11T16:46:19.315Z,10.20
2018-01-11T16:48:46.920Z,10.20
2018-01-11T16:51:15.261Z,10.40
2018-01-11T16:53:42.775Z,10.30
2018-01-11T16:56:10.301Z,10.50
2018-01-11T16:58:37.807Z,10.60
2018-01-11T17:01:05.306Z,10.60
2018-01-11T17:03:32.797Z,10.60
2018-01-11T17:06:00.255Z,10.60
2018-01-11T17:08:27.839Z,10.60
2018-01-11T17:10:55.346Z,10.60
2018-01-11T17:13:22.797Z,10.60
2018-01-11T17:15:50.277Z,10.60
2018-01-11T17:18:17.828Z,10.70
2018-01-11T17:20:45.352Z,10.60
2018-01-11T17:23:13.026Z,10.60
2018-01-11T17:25:40.653Z,10.70
2018-01-11T17:28:08.247Z,10.70
2018-01-11T17:30:35.757Z,10.70
2018-01-11T17:33:03.265Z,10.70
2018-01-11T17:35:30.810Z,10.60
2018-01-11T17:37:58.302Z,10.70
2018-01-11T17:40:26.606Z,10.60
2018-01-11T17:42:54.146Z,10.60
2018-01-11T17:45:21.678Z,10.70
2018-01-11T17:47:49.462Z,10.60
2018-01-11T17:50:17.187Z,10.50
2018-01-11T17:52:45.489Z,10.40
2018-01-11T17:55:13.070Z,10.40
2018-01-11T17:57:40.636Z,10.30
2018-01-11T18:00:08.258Z,10.30
2018-01-11T18:02:35.753Z,10.40
2018-01-11T18:05:03.270Z,10.40
2018-01-11T18:07:31.571Z,10.30
2018-01-11T18:09:59.130Z,10.40
2018-01-11T18:12:26.646Z,10.40
2018-01-11T18:14:54.190Z,10.40
2018-01-11T18:17:22.459Z,10.40
2018-01-11T18:19:49.997Z,10.40
2018-01-11T18:22:17.767Z,10.40
2018-01-11T18:24:45.302Z,10.30
2018-01-11T18:27:12.799Z,10.20
2018-01-11T18:29:40.341Z,10.20
2018-01-11T18:32:07.920Z,10.20
2018-01-11T18:34:35.466Z,10.10
2018-01-11T18:37:03.117Z,10.10
2018-01-11T18:39:30.749Z,10.10
2018-01-11T18:41:59.054Z,10.00
2018-01-11T18:44:26.609Z,10.00
2018-01-11T18:46:54.124Z,10.00
2018-01-11T18:49:21.595Z,10.20
2018-01-11T18:51:49.173Z,10.20
2018-01-11T18:54:16.721Z,10.10
2018-01-11T18:56:44.259Z,10.20
2018-01-11T18:59:12.789Z,10.30
2018-01-11T19:01:40.340Z,10.20
2018-01-11T19:04:07.886Z,10.30
2018-01-11T19:06:36.208Z,10.20
2018-01-11T19:09:03.776Z,10.20
2018-01-11T19:11:31.318Z,10.20
2018-01-11T19:13:58.877Z,10.20
2018-01-11T19:16:26.452Z,10.10
2018-01-11T19:18:54.014Z,10.10
2018-01-11T19:21:21.550Z,10.10
2018-01-11T19:23:49.118Z,10.10
2018-01-11T19:26:16.651Z,10.10
2018-01-11T19:28:44.152Z,10.10
2018-01-11T19:31:11.726Z,10.10
2018-01-11T19:33:39.278Z,10.00
2018-01-11T19:36:07.036Z,10.00
2018-01-11T19:38:34.665Z,9.90
2018-01-11T19:41:02.241Z,10.00
2018-01-11T19:43:29.780Z,10.00
2018-01-11T19:45:57.379Z,10.00
2018-01-11T19:48:25.108Z,9.90
2018-01-11T19:50:52.681Z,9.90
2018-01-11T19:53:20.240Z,10.00
2018-01-11T19:55:47.798Z,10.00
2018-01-11T19:58:15.347Z,9.90
2018-01-11T20:00:42.900Z,9.90
2018-01-11T20:03:10.476Z,9.90
2018-01-11T20:05:38.013Z,9.90
2018-01-11T20:08:05.530Z,9.80
2018-01-11T20:10:33.235Z,9.60
2018-01-11T20:13:00.756Z,9.60
2018-01-11T20:15:28.340Z,9.60
2018-01-11T20:17:55.925Z,9.70
2018-01-11T20:20:23.460Z,9.70
2018-01-11T20:22:51.078Z,9.70
2018-01-11T20:25:18.614Z,9.60
2018-01-11T20:27:46.175Z,9.60
2018-01-11T20:30:13.763Z,9.70
2018-01-11T20:32:41.340Z,9.70
2018-01-11T20:35:08.913Z,9.70
2018-01-11T20:37:37.124Z,9.80
2018-01-11T20:40:04.691Z,9.70
2018-01-11T20:42:32.242Z,9.80
2018-01-11T20:44:59.840Z,9.90
2018-01-11T20:47:27.388Z,9.90
2018-01-11T20:49:54.830Z,9.80
2018-01-11T20:52:22.390Z,9.80
2018-01-11T20:54:49.894Z,9.80
2018-01-11T20:57:17.487Z,9.90
2018-01-11T20:59:46.079Z,9.90
2018-01-11T21:02:13.609Z,9.90
2018-01-11T21:04:41.946Z,9.90
2018-01-11T21:07:10.976Z,9.80
2018-01-11T21:09:39.199Z,9.80
2018-01-11T21:12:06.831Z,9.80
2018-01-11T21:14:34.386Z,9.80
2018-01-11T21:17:01.955Z,9.90
2018-01-11T21:19:29.508Z,9.80
2018-01-11T21:21:57.113Z,9.80
2018-01-11T21:24:24.639Z,9.80
2018-01-11T21:26:52.172Z,9.80
2018-01-11T21:29:19.702Z,9.80
2018-01-11T21:31:47.231Z,9.80
2018-01-11T21:34:14.722Z,9.80
2018-01-11T21:36:42.244Z,9.80
2018-01-11T21:39:09.930Z,9.70
2018-01-11T21:41:37.426Z,9.70
2018-01-11T21:44:05.873Z,9.50
2018-01-11T21:46:33.402Z,9.50
2018-01-11T21:49:00.980Z,9.40
2018-01-11T21:51:28.499Z,9.40
2018-01-11T21:53:56.021Z,9.40
2018-01-11T21:56:23.539Z,9.30
2018-01-11T21:58:51.236Z,9.20
2018-01-11T22:01:18.743Z,9.20
2018-01-11T22:03:46.279Z,9.20
2018-01-11T22:06:13.797Z,9.20
2018-01-11T22:08:41.328Z,9.30
2018-01-11T22:11:08.879Z,9.30
2018-01-11T22:13:36.396Z,9.40
2018-01-11T22:16:03.929Z,9.40
2018-01-11T22:18:31.550Z,9.50
2018-01-11T22:20:59.061Z,9.50
2018-01-11T22:23:26.581Z,9.50
2018-01-11T22:25:54.159Z,9.50
2018-01-11T22:28:21.920Z,9.50
2018-01-11T22:30:49.466Z,9.60
2018-01-11T22:33:16.973Z,9.60
2018-01-11T22:35:46.107Z,9.60
2018-01-11T22:38:13.559Z,9.60
2018-01-11T22:40:41.065Z,9.60
2018-01-11T22:43:08.629Z,9.70
2018-01-11T22:45:36.178Z,9.70
2018-01-11T22:48:03.693Z,9.60
2018-01-11T22:50:31.960Z,9.60
2018-01-11T22:53:00.220Z,9.70
2018-01-11T22:55:28.029Z,9.70
2018-01-11T22:57:55.573Z,9.60
2018-01-11T23:00:23.849Z,9.50
2018-01-11T23:02:52.144Z,9.50
2018-01-11T23:05:19.882Z,9.50
2018-01-11T23:07:47.408Z,9.40
2018-01-11T23:10:14.914Z,9.50
2018-01-11T23:12:42.483Z,9.50
2018-01-11T23:15:10.009Z,9.50
2018-01-11T23:17:38.281Z,9.60
2018-01-11T23:20:05.836Z,9.60
2018-01-11T23:22:33.271Z,9.60
2018-01-11T23:25:00.782Z,9.60
2018-01-11T23:27:29.239Z,9.60
2018-01-11T23:29:57.940Z,9.50
2018-01-11T23:32:25.510Z,9.50
2018-01-11T23:34:53.077Z,9.50
2018-01-11T23:37:20.622Z,9.50
2018-01-11T23:39:48.940Z,9.60
2018-01-11T23:42:16.535Z,9.50
2018-01-11T23:44:47.006Z,9.50
2018-01-11T23:47:14.571Z,9.50
2018-01-11T23:49:42.082Z,9.40
2018-01-11T23:52:10.520Z,9.30
2018-01-11T23:54:38.078Z,9.40
2018-01-11T23:57:05.741Z,9.40
2018-01-11T23:59:33.213Z,9.50
